Time;durP1;ratioP1;P1;durP2;ratioP2;P2;SDS_P1;SDS_P2;PMS_P1;PMS_P2;Temp;Humidity;BMP_temperature;BMP_pressure;BME280_temperature;BME280_humidity;BME280_pressure;Samples;Min_cycle;Max_cycle;Signal;HPM_P1;HPM_P2
2022/06/21 00:00:37;;;;;;;5.52;4.39;;;;;;;21.32;55.19;99966.59;470755;112;922651;-75
2022/06/21 00:01:40;;;;;;;5.97;4.91;;;;;;;21.33;55.25;99962.70;471522;112;922542;-74
2022/06/21 00:02:44;;;;;;;6.93;4.47;;;;;;;21.34;55.27;99970.70;471547;112;922752;-75
2022/06/21 00:03:49;;;;;;;5.16;4.46;;;;;;;21.33;55.15;99957.98;471378;112;922569;-74
2022/06/21 00:04:54;;;;;;;5.77;4.58;;;;;;;21.32;55.06;99961.05;471329;112;922614;-75
2022/06/21 00:05:58;;;;;;;4.65;4.14;;;;;;;21.32;55.06;99963.83;470136;112;922557;-75
2022/06/21 00:07:04;;;;;;;5.41;4.57;;;;;;;21.31;55.13;99957.45;463125;114;922509;-75
2022/06/21 00:08:14;;;;;;;5.48;4.44;;;;;;;21.32;55.06;99955.51;463026;114;923057;-75
2022/06/21 00:09:18;;;;;;;5.48;4.56;;;;;;;21.31;55.14;99960.22;463053;114;922628;-74
2022/06/21 00:10:21;;;;;;;5.37;4.26;;;;;;;21.32;55.24;99959.11;463181;114;922751;-75
2022/06/21 00:11:27;;;;;;;5.89;4.66;;;;;;;21.33;55.26;99955.21;463267;114;922595;-75
2022/06/21 00:12:30;;;;;;;6.69;4.83;;;;;;;21.34;55.28;99964.33;463059;114;922590;-74
2022/06/21 00:13:34;;;;;;;6.36;4.31;;;;;;;21.34;55.27;99965.16;463228;113;922666;-75
2022/06/21 00:14:38;;;;;;;4.92;4.43;;;;;;;21.33;55.26;99952.44;463142;114;922635;-74
2022/06/21 00:15:42;;;;;;;6.34;4.90;;;;;;;21.33;55.24;99957.16;463249;114;922520;-75
2022/06/21 00:16:45;;;;;;;5.96;5.16;;;;;;;21.32;55.27;99958.28;463098;114;922660;-75
2022/06/21 00:17:49;;;;;;;6.79;5.06;;;;;;;21.31;55.25;99956.63;463265;114;922648;-75
2022/06/21 00:18:53;;;;;;;5.73;4.88;;;;;;;21.31;55.29;99957.45;463186;113;922556;-74
2022/06/21 00:19:56;;;;;;;5.08;3.99;;;;;;;21.31;55.35;99959.40;463102;114;930616;-74
2022/06/21 00:20:59;;;;;;;6.99;4.76;;;;;;;21.30;55.31;99954.97;463308;114;922584;-74
2022/06/21 00:22:02;;;;;;;6.00;4.70;;;;;;;21.28;55.34;99958.03;463271;114;922933;-75
2022/06/21 00:23:06;;;;;;;7.49;4.53;;;;;;;21.26;55.49;99959.48;463288;114;922584;-75
2022/06/21 00:24:10;;;;;;;6.29;4.82;;;;;;;21.26;55.47;99953.93;463177;113;923192;-75
2022/06/21 00:25:20;;;;;;;5.92;5.02;;;;;;;21.23;55.51;99950.63;463067;114;930421;-75
2022/06/21 00:26:27;;;;;;;5.32;4.84;;;;;;;21.23;55.57;99951.77;463167;114;922630;-74
2022/06/21 00:27:30;;;;;;;6.75;4.26;;;;;;;21.20;55.68;99948.47;463054;114;922564;-74
2022/06/21 00:28:33;;;;;;;5.02;4.28;;;;;;;21.20;55.81;99955.95;463223;113;922576;-74
2022/06/21 00:29:36;;;;;;;5.14;4.66;;;;;;;21.18;55.85;99947.93;463236;114;922495;-74
2022/06/21 00:30:39;;;;;;;5.11;4.16;;;;;;;21.17;55.94;99949.05;463200;114;923287;-76
2022/06/21 00:31:46;;;;;;;7.48;4.36;;;;;;;21.16;55.95;99944.66;463146;114;923182;-75
2022/06/21 00:32:52;;;;;;;5.39;4.63;;;;;;;21.15;56.02;99942.17;463063;114;922667;-74
2022/06/21 00:33:57;;;;;;;6.63;4.52;;;;;;;21.14;56.10;99944.12;466159;112;922733;-76
2022/06/21 00:35:00;;;;;;;7.98;4.71;;;;;;;21.13;56.16;99933.29;471460;112;923465;-76
2022/06/21 00:36:06;;;;;;;7.16;5.03;;;;;;;21.14;56.22;99951.58;471507;112;922649;-76
2022/06/21 00:37:19;;;;;;;5.00;4.54;;;;;;;21.13;56.21;99947.98;470722;112;922543;-76
2022/06/21 00:38:32;;;;;;;6.54;4.85;;;;;;;21.12;56.08;99943.55;471286;112;922953;-75
2022/06/21 00:39:35;;;;;;;6.83;4.30;;;;;;;21.10;55.96;99948.59;466644;112;922492;-75
2022/06/21 00:40:38;;;;;;;5.24;4.51;;;;;;;21.09;56.07;99949.71;471541;112;922571;-75
2022/06/21 00:41:45;;;;;;;5.99;5.01;;;;;;;21.08;56.01;99944.45;471457;112;922986;-74
2022/06/21 00:42:57;;;;;;;6.72;4.79;;;;;;;21.07;55.88;99951.12;471335;112;922648;-75
2022/06/21 00:44:03;;;;;;;5.42;4.94;;;;;;;21.06;55.88;99944.75;471214;112;923193;-75
2022/06/21 00:45:12;;;;;;;5.71;4.92;;;;;;;21.04;55.92;99947.02;471253;112;922617;-76
2022/06/21 00:46:22;;;;;;;8.68;5.15;;;;;;;21.04;55.92;99952.55;471282;112;922980;-75
2022/06/21 00:47:29;;;;;;;6.64;5.06;;;;;;;21.05;55.81;99945.07;455294;115;922703;-76
2022/06/21 00:48:38;;;;;;;6.32;5.33;;;;;;;21.03;55.76;99942.59;470035;112;922527;-75
2022/06/21 00:49:59;;;;;;;5.88;5.38;;;;;;;21.04;55.85;99944.24;471238;112;922621;-75
2022/06/21 00:51:17;;;;;;;5.98;5.32;;;;;;;21.04;55.76;99940.64;471187;112;922546;-75
2022/06/21 00:52:24;;;;;;;6.57;5.26;;;;;;;21.04;55.85;99947.02;471231;112;922599;-75
2022/06/21 00:53:35;;;;;;;6.95;5.27;;;;;;;21.03;55.75;99944.53;471154;112;922757;-74
2022/06/21 00:54:56;;;;;;;10.96;5.72;;;;;;;21.03;55.75;99948.13;470711;112;922591;-75
2022/06/21 00:56:12;;;;;;;6.06;5.51;;;;;;;21.02;55.69;99949.25;471038;112;922614;-76
2022/06/21 00:57:19;;;;;;;6.37;5.38;;;;;;;21.02;55.74;99952.02;471194;112;922538;-75
2022/06/21 00:58:27;;;;;;;5.91;5.34;;;;;;;21.02;55.77;99949.25;471180;112;922524;-74
2022/06/21 00:59:33;;;;;;;8.38;5.79;;;;;;;21.03;55.66;99944.53;471237;112;922578;-75
2022/06/21 01:00:40;;;;;;;6.83;6.02;;;;;;;21.03;55.62;99955.63;471240;112;923077;-75
2022/06/21 01:01:44;;;;;;;6.18;5.41;;;;;;;21.04;55.62;99952.55;458789;112;923401;-75
2022/06/21 01:02:47;;;;;;;7.51;5.74;;;;;;;21.04;55.55;99952.55;465409;112;922548;-74
2022/06/21 01:03:57;;;;;;;6.21;5.39;;;;;;;21.05;55.50;99948.67;463001;114;930359;-74
2022/06/21 01:05:02;;;;;;;6.43;5.74;;;;;;;21.06;55.47;99943.95;462965;114;923318;-75
2022/06/21 01:06:08;;;;;;;6.72;5.57;;;;;;;21.06;55.43;99953.06;462983;114;922608;-75
2022/06/21 01:07:12;;;;;;;6.27;5.48;;;;;;;21.06;55.43;99941.97;462586;114;930397;-75
2022/06/21 01:08:19;;;;;;;7.16;5.44;;;;;;;21.06;55.35;99941.18;463023;114;922514;-76
2022/06/21 01:09:32;;;;;;;6.34;5.62;;;;;;;21.05;55.35;99940.35;468186;112;922869;-76
2022/06/21 01:10:35;;;;;;;5.94;5.42;;;;;;;21.05;55.41;99943.13;471211;112;922644;-76
2022/06/21 01:11:42;;;;;;;6.22;5.64;;;;;;;21.05;55.39;99948.67;471382;112;922909;-75
2022/06/21 01:13:00;;;;;;;5.99;4.85;;;;;;;21.05;55.51;99948.67;471262;112;922703;-74
2022/06/21 01:14:08;;;;;;;7.27;5.18;;;;;;;21.03;55.46;99942.59;470603;112;922541;-74
2022/06/21 01:15:16;;;;;;;9.89;5.48;;;;;;;21.02;55.55;99943.70;471179;112;922863;-75
2022/06/21 01:16:20;;;;;;;6.04;5.15;;;;;;;21.00;55.71;99945.97;471188;112;922554;-75
2022/06/21 01:17:26;;;;;;;9.03;5.89;;;;;;;20.99;55.89;99941.55;470363;112;922847;-75
2022/06/21 01:18:30;;;;;;;5.81;5.17;;;;;;;20.98;56.06;99939.89;471145;112;922734;-76
2022/06/21 01:19:37;;;;;;;6.36;5.38;;;;;;;20.97;56.16;99938.23;471378;112;922641;-75
2022/06/21 01:20:43;;;;;;;8.13;5.89;;;;;;;;;;471212;112;922564;-74
2022/06/21 01:21:48;;;;;;;6.28;5.67;;;;;;;20.94;56.52;99935.25;471213;112;923014;-75
2022/06/21 01:22:58;;;;;;;6.21;5.59;;;;;;;20.94;56.58;99938.02;471195;112;922551;-75
2022/06/21 01:24:23;;;;;;;6.50;5.84;;;;;;;20.92;56.72;99937.48;471179;112;922723;-75
2022/06/21 01:25:46;;;;;;;7.55;5.77;;;;;;;20.90;56.78;99929.46;471144;112;923126;-75
2022/06/21 01:26:59;;;;;;;7.44;6.08;;;;;;;20.89;56.91;99941.70;470609;112;922563;-74
2022/06/21 01:28:02;;;;;;;6.27;5.62;;;;;;;20.87;56.84;99932.84;471206;112;922567;-75
2022/06/21 01:29:09;;;;;;;6.14;5.51;;;;;;;20.85;56.82;99929.53;471323;112;922575;-74
2022/06/21 01:30:13;;;;;;;6.25;5.66;;;;;;;20.84;56.79;99927.09;463464;112;930438;-75
2022/06/21 01:31:16;;;;;;;6.57;5.52;;;;;;;20.82;56.80;99932.91;463004;114;923345;-74
2022/06/21 01:32:19;;;;;;;9.43;5.89;;;;;;;20.80;56.84;99929.61;462920;114;930950;-75
2022/06/21 01:33:32;;;;;;;6.80;5.63;;;;;;;20.81;56.87;99928.49;463049;114;922544;-75
2022/06/21 01:34:35;;;;;;;9.17;5.81;;;;;;;20.78;56.90;99926.33;465318;113;922555;-75
2022/06/21 01:35:44;;;;;;;6.37;5.64;;;;;;;20.79;56.97;99925.18;465583;114;922810;-74
2022/06/21 01:36:51;;;;;;;7.11;6.44;;;;;;;20.78;56.86;99924.36;454171;116;922519;-75
2022/06/21 01:37:57;;;;;;;5.72;5.22;;;;;;;20.78;56.82;99926.33;454220;116;923283;-75
2022/06/21 01:39:12;;;;;;;7.06;5.88;;;;;;;20.77;56.74;99925.50;454157;116;923191;-75
2022/06/21 01:40:25;;;;;;;10.17;5.90;;;;;;;20.76;56.66;99923.02;453884;116;923080;-75
2022/06/21 01:41:32;;;;;;;6.33;5.73;;;;;;;20.76;56.60;99925.79;454187;116;922612;-74
2022/06/21 01:42:49;;;;;;;6.50;5.76;;;;;;;20.76;56.55;99925.79;454245;116;922562;-75
2022/06/21 01:43:56;;;;;;;6.28;5.71;;;;;;;20.76;56.49;99925.79;454225;116;923067;-74
2022/06/21 01:45:02;;;;;;;7.94;6.41;;;;;;;20.74;56.42;99931.63;454194;116;922499;-74
2022/06/21 01:46:09;;;;;;;6.72;5.97;;;;;;;20.74;56.34;99926.08;454201;116;922666;-75
2022/06/21 01:47:18;;;;;;;9.60;6.28;;;;;;;20.75;56.31;99936.05;454247;116;922656;-75
2022/06/21 01:48:33;;;;;;;7.37;6.15;;;;;;;20.75;56.27;99936.05;454204;116;922791;-76
2022/06/21 01:49:39;;;;;;;7.36;5.87;;;;;;;20.75;56.29;99922.20;454235;116;922639;-74
2022/06/21 01:50:44;;;;;;;9.28;6.17;;;;;;;20.74;56.30;99926.08;454049;116;922625;-75
2022/06/21 01:51:51;;;;;;;6.91;6.22;;;;;;;20.73;56.43;99920.86;454244;116;922554;-74
2022/06/21 01:52:56;;;;;;;7.14;6.39;;;;;;;20.74;56.57;99923.31;454152;116;922614;-75
2022/06/21 01:54:01;;;;;;;7.32;5.64;;;;;;;20.74;56.68;99919.72;454262;116;922689;-74
2022/06/21 01:55:11;;;;;;;10.87;5.41;;;;;;;20.74;56.87;99919.72;454110;116;930566;-75
2022/06/21 01:56:21;;;;;;;7.51;5.04;;;;;;;20.74;57.02;99931.63;454032;116;922546;-75
2022/06/21 01:57:23;;;;;;;6.29;5.26;;;;;;;20.73;57.13;99918.88;454135;116;930475;-74
2022/06/21 01:58:30;;;;;;;7.24;5.78;;;;;;;20.71;57.33;99920.33;453321;116;922625;-75
2022/06/21 01:59:36;;;;;;;8.45;5.27;;;;;;;20.71;57.45;99926.69;446405;118;930576;-75
2022/06/21 02:00:42;;;;;;;7.07;4.88;;;;;;;20.71;57.54;99925.86;446352;118;922672;-75
2022/06/21 02:01:49;;;;;;;7.76;5.48;;;;;;;20.70;57.60;99918.67;446506;118;923208;-74
2022/06/21 02:02:55;;;;;;;8.19;5.57;;;;;;;20.69;57.71;99919.78;446080;118;922759;-75
2022/06/21 02:04:02;;;;;;;6.71;4.62;;;;;;;20.69;57.75;99909.53;446495;118;923117;-74
2022/06/21 02:05:12;;;;;;;5.69;4.93;;;;;;;20.68;57.82;99916.19;446511;116;922630;-74
2022/06/21 02:06:16;;;;;;;;;;;;;;;20.68;57.80;99909.81;443862;119;922133;-76
2022/06/21 02:07:23;;;;;;;6.68;5.72;;;;;;;20.67;57.78;99920.11;442725;120;923146;-74
2022/06/21 02:08:29;;;;;;;8.81;6.22;;;;;;;20.64;57.78;99911.55;442574;120;931057;-75
2022/06/21 02:09:36;;;;;;;8.98;5.76;;;;;;;20.62;57.81;99908.27;442642;120;922666;-74
2022/06/21 02:10:45;;;;;;;6.81;5.34;;;;;;;20.60;57.83;99908.55;434932;122;923083;-75
2022/06/21 02:12:00;;;;;;;7.37;5.11;;;;;;;20.59;57.77;99901.36;454939;116;922596;-75
2022/06/21 02:13:07;;;;;;;6.57;5.53;;;;;;;20.58;57.69;99904.42;458351;116;922331;-74
2022/06/21 02:14:28;;;;;;;6.24;5.68;;;;;;;20.58;57.67;99904.42;457837;116;922343;-75
2022/06/21 02:15:47;;;;;;;8.88;6.13;;;;;;;20.57;57.68;99902.77;458258;116;922463;-75
2022/06/21 02:16:53;;;;;;;9.73;5.77;;;;;;;20.57;57.66;99900.00;458099;116;922370;-75
2022/06/21 02:17:58;;;;;;;7.74;6.09;;;;;;;20.57;57.65;99902.77;458374;116;922612;-75
2022/06/21 02:19:02;;;;;;;6.43;5.38;;;;;;;20.55;57.67;99899.48;458279;116;922594;-75
2022/06/21 02:20:20;;;;;;;9.04;6.19;;;;;;;20.56;57.70;99901.14;458553;116;922702;-74
2022/06/21 02:21:26;;;;;;;9.27;5.50;;;;;;;20.55;57.74;99892.01;458422;116;922538;-74
2022/06/21 02:22:31;;;;;;;6.79;5.48;;;;;;;20.56;57.80;99896.44;458332;116;922953;-75
2022/06/21 02:23:34;;;;;;;8.09;6.55;;;;;;;20.56;57.85;99899.20;458406;116;922406;-75
2022/06/21 02:24:37;;;;;;;6.62;5.92;;;;;;;20.57;57.81;99892.52;458635;116;922319;-74
2022/06/21 02:25:42;;;;;;;7.64;6.27;;;;;;;20.59;57.85;99897.77;458556;116;922319;-75
2022/06/21 02:26:45;;;;;;;7.04;6.34;;;;;;;20.59;57.83;99895.82;458395;116;923326;-75
2022/06/21 02:27:51;;;;;;;10.14;6.31;;;;;;;20.60;57.82;99893.87;458494;116;922294;-75
2022/06/21 02:28:54;;;;;;;10.62;5.81;;;;;;;20.60;57.86;99891.94;458334;116;922421;-74
2022/06/21 02:30:00;;;;;;;6.42;5.83;;;;;;;20.61;57.89;99892.77;460563;114;922888;-74
2022/06/21 02:31:03;;;;;;;6.75;5.66;;;;;;;20.62;57.88;99894.42;458582;116;922371;-76
2022/06/21 02:32:10;;;;;;;8.92;5.79;;;;;;;20.62;57.93;99889.67;458694;116;922619;-76
2022/06/21 02:33:16;;;;;;;9.24;6.92;;;;;;;20.64;57.93;99892.16;458451;116;922520;-76
2022/06/21 02:34:31;;;;;;;8.10;6.31;;;;;;;20.65;58.02;99886.33;458559;114;922659;-76
2022/06/21 02:35:44;;;;;;;7.33;6.51;;;;;;;20.66;58.15;99881.61;458470;116;922688;-77
2022/06/21 02:36:53;;;;;;;8.32;5.47;;;;;;;20.68;58.24;99882.12;456414;114;922437;-76
2022/06/21 02:38:00;;;;;;;10.61;6.49;;;;;;;20.69;58.32;99887.37;456049;116;922382;-76
2022/06/21 02:39:05;;;;;;;8.08;6.19;;;;;;;20.70;58.39;99879.88;456060;116;922378;-74
2022/06/21 02:40:12;;;;;;;7.62;5.93;;;;;;;20.70;58.49;99883.48;456130;116;922393;-77
2022/06/21 02:41:31;;;;;;;7.52;6.02;;;;;;;20.73;58.56;99882.08;455694;115;922412;-76
2022/06/21 02:42:38;;;;;;;9.19;6.00;;;;;;;20.74;58.60;99878.98;430650;123;922434;-75
2022/06/21 02:43:44;;;;;;;6.45;5.79;;;;;;;20.74;58.67;99881.75;449861;118;923013;-77
2022/06/21 02:44:54;;;;;;;6.37;5.77;;;;;;;20.75;58.72;99882.58;449940;118;922520;-75
2022/06/21 02:46:04;;;;;;;7.46;5.88;;;;;;;20.76;58.84;99881.47;449824;118;922883;-75
2022/06/21 02:47:16;;;;;;;6.84;5.71;;;;;;;20.77;58.75;99880.34;449738;118;922582;-77
2022/06/21 02:48:22;;;;;;;6.28;5.62;;;;;;;20.77;58.71;99881.17;449885;118;922517;-77
2022/06/21 02:49:35;;;;;;;9.37;7.06;;;;;;;20.79;58.74;99880.85;448031;118;922349;-75
2022/06/21 02:50:44;;;;;;;8.21;7.25;;;;;;;20.80;58.63;99876.96;447680;118;922572;-76
2022/06/21 02:51:50;;;;;;;8.21;6.04;;;;;;;20.82;58.51;99877.50;447621;118;922350;-75
2022/06/21 02:52:55;;;;;;;6.69;5.93;;;;;;;20.84;58.42;99874.44;447686;118;922503;-76
2022/06/21 02:54:08;;;;;;;12.18;7.00;;;;;;;20.85;58.35;99871.34;447738;118;922370;-74
2022/06/21 02:55:23;;;;;;;9.62;7.59;;;;;;;20.88;58.26;99873.53;448950;118;922499;-75
2022/06/21 02:56:35;;;;;;;7.93;7.00;;;;;;;20.89;58.07;99877.95;449972;118;922427;-76
2022/06/21 02:57:48;;;;;;;15.57;7.37;;;;;;;20.91;57.94;99867.38;449886;118;922332;-76
2022/06/21 02:58:54;;;;;;;8.89;8.10;;;;;;;20.94;57.78;99877.05;449904;118;922580;-76
2022/06/21 02:59:58;;;;;;;8.40;7.38;;;;;;;20.96;57.56;99858.98;449904;118;922418;-75
2022/06/21 03:01:05;;;;;;;11.02;8.10;;;;;;;20.98;57.45;99873.38;449950;118;922291;-76
2022/06/21 03:02:12;;;;;;;8.65;7.83;;;;;;;21.01;57.38;99869.98;444450;119;930204;-77
2022/06/21 03:03:25;;;;;;;8.76;7.93;;;;;;;21.03;57.18;99870.52;444772;119;922589;-76
2022/06/21 03:04:40;;;;;;;10.23;8.26;;;;;;;21.06;57.01;99867.13;444726;119;922333;-76
2022/06/21 03:05:45;;;;;;;8.62;7.54;;;;;;;21.09;56.97;99865.72;445557;118;922230;-77
2022/06/21 03:06:50;;;;;;;12.26;9.19;;;;;;;21.10;56.78;99868.20;449955;117;922462;-76
2022/06/21 03:07:58;;;;;;;9.27;8.26;;;;;;;21.13;56.63;99872.30;449899;118;922271;-76
2022/06/21 03:09:06;;;;;;;9.62;8.21;;;;;;;21.16;56.34;99867.03;449916;118;922348;-77
2022/06/21 03:10:18;;;;;;;8.91;8.03;;;;;;;21.18;56.18;99867.53;449914;118;922316;-76
2022/06/21 03:11:24;;;;;;;9.03;8.26;;;;;;;21.20;56.14;99867.23;449948;118;922212;-76
2022/06/21 03:12:30;;;;;;;9.38;8.31;;;;;;;21.23;56.01;99865.82;449482;118;922362;-74
2022/06/21 03:13:35;;;;;;;10.41;9.03;;;;;;;21.25;55.90;99860.78;449438;118;922998;-74
2022/06/21 03:14:38;;;;;;;8.95;8.14;;;;;;;21.27;55.80;99855.77;449480;118;922524;-74
2022/06/21 03:15:47;;;;;;;9.77;8.83;;;;;;;21.30;55.64;99844.88;449550;118;930515;-76
2022/06/21 03:16:52;;;;;;;10.86;9.69;;;;;;;21.33;55.58;99857.33;449632;118;923003;-75
2022/06/21 03:17:58;;;;;;;13.66;9.19;;;;;;;21.36;55.35;99851.16;449458;118;922975;-76
2022/06/21 03:19:05;;;;;;;9.75;8.85;;;;;;;21.38;55.17;99851.69;449293;118;922735;-75
2022/06/21 03:20:17;;;;;;;10.49;9.47;;;;;;;21.40;55.00;99847.47;449345;118;922609;-74
2022/06/21 03:21:30;;;;;;;10.36;9.33;;;;;;;21.43;54.86;99855.20;449343;118;922577;-74
2022/06/21 03:22:34;;;;;;;11.39;8.74;;;;;;;21.44;54.68;99851.30;438684;118;922653;-75
2022/06/21 03:23:39;;;;;;;11.14;8.85;;;;;;;21.47;54.59;99849.86;449365;118;922657;-75
2022/06/21 03:24:42;;;;;;;9.58;8.71;;;;;;;21.49;54.49;99847.61;449397;118;923003;-75
2022/06/21 03:25:48;;;;;;;9.37;7.66;;;;;;;21.52;54.37;99847.81;449453;118;930528;-75
2022/06/21 03:26:58;;;;;;;10.03;9.09;;;;;;;21.53;54.26;99846.69;448688;118;923280;-75
2022/06/21 03:28:02;;;;;;;10.41;9.33;;;;;;;21.56;54.23;99836.92;448890;118;922992;-75
2022/06/21 03:29:05;;;;;;;9.76;8.75;;;;;;;21.57;54.11;99835.80;449390;118;922575;-74
2022/06/21 03:30:08;;;;;;;9.98;8.26;;;;;;;21.58;54.03;99841.05;447552;118;922574;-76
2022/06/21 03:31:15;;;;;;;9.48;8.54;;;;;;;21.62;53.99;99841.25;449432;118;922804;-75
2022/06/21 03:32:18;;;;;;;11.29;8.66;;;;;;;21.64;53.89;99844.55;449317;118;922897;-76
2022/06/21 03:33:21;;;;;;;9.33;8.49;;;;;;;21.67;53.82;99846.70;449539;118;922539;-75
2022/06/21 03:34:26;;;;;;;9.26;8.37;;;;;;;21.69;53.68;99841.68;449506;116;922614;-75
2022/06/21 03:35:32;;;;;;;9.56;8.76;;;;;;;21.70;53.62;99843.33;449341;118;923143;-74
2022/06/21 03:36:36;;;;;;;9.28;8.38;;;;;;;21.73;53.23;99836.33;450397;116;930613;-75
2022/06/21 03:37:40;;;;;;;10.28;8.89;;;;;;;21.73;53.23;99836.33;463143;114;922756;-75
2022/06/21 03:38:46;;;;;;;9.14;8.22;;;;;;;21.75;53.49;99828.53;463140;114;922437;-75
2022/06/21 03:42:39;;;;;;;9.06;8.23;;;;;;;21.82;53.50;99828.96;463005;114;922522;-75
2022/06/21 03:43:54;;;;;;;9.71;8.75;;;;;;;21.84;53.49;99838.61;462458;114;923015;-76
2022/06/21 03:45:07;;;;;;;12.38;8.27;;;;;;;21.87;53.45;99834.41;463069;114;922630;-75
2022/06/21 03:46:14;;;;;;;9.22;8.41;;;;;;;21.88;53.40;99836.06;462761;114;922684;-76
2022/06/21 03:47:27;;;;;;;10.13;9.22;;;;;;;21.90;53.44;99831.00;463021;114;922610;-77
2022/06/21 03:48:49;;;;;;;10.80;9.43;;;;;;;21.91;53.43;99836.25;462922;114;922681;-75
2022/06/21 03:50:07;;;;;;;11.69;9.44;;;;;;;21.94;53.36;99835.66;463010;114;922608;-76
2022/06/21 03:51:14;;;;;;;10.31;8.62;;;;;;;21.95;53.29;99828.98;462978;114;922663;-76
2022/06/21 03:52:41;;;;;;;9.89;8.89;;;;;;;21.96;53.29;99836.19;462981;114;922835;-76
2022/06/21 03:54:00;;;;;;;10.45;9.47;;;;;;;21.97;53.25;99837.83;462949;114;922824;-74
2022/06/21 03:55:07;;;;;;;10.02;9.01;;;;;;;21.98;53.23;99833.11;462633;114;922829;-74
2022/06/21 03:56:14;;;;;;;12.17;9.71;;;;;;;21.98;53.29;99835.88;461453;114;922595;-74
2022/06/21 03:57:26;;;;;;;9.63;8.68;;;;;;;21.98;53.31;99842.27;462536;114;922667;-75
2022/06/21 03:58:42;;;;;;;11.03;9.96;;;;;;;22.00;53.45;99837.20;462443;114;922556;-75
2022/06/21 03:59:58;;;;;;;10.33;9.39;;;;;;;22.01;53.43;99832.48;462908;114;922666;-74
2022/06/21 04:01:17;;;;;;;13.54;9.82;;;;;;;22.02;53.50;99826.63;462940;114;922600;-75
2022/06/21 04:02:35;;;;;;;10.46;9.38;;;;;;;22.04;53.56;99826.33;462915;114;922624;-75
2022/06/21 04:03:51;;;;;;;10.90;8.31;;;;;;;22.05;53.60;99823.22;462413;114;922738;-75
2022/06/21 04:04:58;;;;;;;10.61;9.44;;;;;;;22.07;53.64;99830.42;462848;114;922651;-75
2022/06/21 04:06:27;;;;;;;10.61;9.52;;;;;;;22.06;53.66;99824.05;462889;114;923156;-75
2022/06/21 04:07:42;;;;;;;13.76;10.37;;;;;;;22.09;53.69;99830.95;462955;114;923192;-75
2022/06/21 04:08:49;;;;;;;10.52;9.49;;;;;;;22.10;53.77;99824.27;462898;114;922631;-74
2022/06/21 04:10:12;;;;;;;9.57;8.42;;;;;;;22.10;53.85;99830.64;462803;114;922664;-76
2022/06/21 04:11:19;;;;;;;10.04;8.61;;;;;;;22.11;53.89;99825.92;462935;114;922727;-75
2022/06/21 04:12:28;;;;;;;10.53;9.51;;;;;;;22.13;53.88;99827.23;462800;114;923051;-75
2022/06/21 04:13:38;;;;;;;10.12;9.15;;;;;;;22.15;54.00;99826.94;462238;114;922573;-76
2022/06/21 04:14:50;;;;;;;11.42;9.37;;;;;;;22.18;54.02;99815.19;462889;114;923076;-75
2022/06/21 04:16:05;;;;;;;10.78;9.32;;;;;;;22.19;54.00;99814.06;462538;114;922878;-74
2022/06/21 04:17:34;;;;;;;10.69;9.61;;;;;;;22.21;54.02;99820.97;462934;114;922815;-76
2022/06/21 04:19:00;;;;;;;11.05;9.44;;;;;;;22.21;54.04;99820.97;456155;116;923471;-75
2022/06/21 04:20:16;;;;;;;11.20;9.59;;;;;;;22.22;54.10;99825.37;458813;114;923030;-75
2022/06/21 04:21:49;;;;;;;13.08;9.66;;;;;;;22.23;54.23;99817.86;462922;114;923124;-75
2022/06/21 04:23:10;;;;;;;10.61;9.71;;;;;;;22.24;54.33;99819.52;462661;114;922675;-76
2022/06/21 04:24:25;;;;;;;13.05;9.52;;;;;;;22.26;54.47;99811.70;462857;114;922671;-74
2022/06/21 04:25:34;;;;;;;10.41;9.32;;;;;;;22.28;54.42;99814.97;462935;114;922686;-75
2022/06/21 04:26:47;;;;;;;10.23;9.28;;;;;;;22.31;54.45;99814.37;462747;114;922635;-74
2022/06/21 04:27:56;;;;;;;11.42;10.35;;;;;;;22.32;54.50;99808.51;462985;114;922556;-74
2022/06/21 04:29:05;;;;;;;10.91;9.61;;;;;;;22.36;54.51;99812.30;462804;114;922683;-75
2022/06/21 04:30:22;;;;;;;11.83;10.02;;;;;;;22.38;54.59;99809.22;463340;114;922615;-74
2022/06/21 04:31:47;;;;;;;10.74;9.09;;;;;;;22.52;54.63;99803.62;477108;110;947286;-75
2022/06/21 04:33:11;;;;;;;10.93;9.63;;;;;;;22.42;54.66;99804.68;465383;113;923158;-75
2022/06/21 04:34:33;;;;;;;11.12;9.26;;;;;;;22.45;54.69;99809.59;459309;114;922780;-76
2022/06/21 04:35:43;;;;;;;9.26;7.68;;;;;;;22.48;54.65;99811.77;457313;115;923152;-74
2022/06/21 04:36:58;;;;;;;8.61;7.61;;;;;;;22.50;54.49;99803.92;457319;115;923059;-75
2022/06/21 04:38:12;;;;;;;8.95;7.74;;;;;;;22.55;54.01;99808.56;488241;107;923257;-74
2022/06/21 04:39:47;;;;;;;8.81;7.63;;;;;;;22.56;54.30;99804.63;468906;111;922566;-74
2022/06/21 04:40:54;;;;;;;8.78;7.75;;;;;;;22.60;53.99;99803.72;438681;120;922938;-75
2022/06/21 04:42:01;;;;;;;7.73;6.97;;;;;;;22.60;53.99;99803.72;451715;113;922756;-75
2022/06/21 04:43:13;;;;;;;9.25;7.89;;;;;;;22.63;54.29;99797.52;466812;113;922917;-77
2022/06/21 04:44:26;;;;;;;10.63;8.29;;;;;;;22.65;54.28;99799.98;466880;111;922572;-74
2022/06/21 04:45:47;;;;;;;12.28;8.82;;;;;;;22.69;54.33;99787.11;446186;118;922759;-75
2022/06/21 04:47:03;;;;;;;11.13;8.11;;;;;;;22.72;54.36;99789.27;466589;113;922612;-76
2022/06/21 04:48:26;;;;;;;10.44;8.98;;;;;;;22.73;54.50;99794.52;458753;115;922576;-74
2022/06/21 04:49:54;;;;;;;10.93;9.88;;;;;;;22.76;54.58;99791.13;458769;115;922542;-76
2022/06/21 04:51:31;;;;;;;14.10;10.97;;;;;;;22.79;54.66;99790.49;458734;115;922871;-74
2022/06/21 04:52:37;;;;;;;12.96;11.73;;;;;;;22.82;54.69;99794.61;458670;115;922873;-74
2022/06/21 04:53:58;;;;;;;12.46;11.25;;;;;;;22.85;54.71;99794.80;458323;113;923124;-75
2022/06/21 04:55:03;;;;;;;13.49;12.33;;;;;;;22.85;54.71;99794.80;458765;115;923362;-74
2022/06/21 04:56:34;;;;;;;12.79;11.62;;;;;;;22.86;54.73;99790.06;458789;115;923026;-74
2022/06/21 04:57:37;;;;;;;14.99;12.09;;;;;;;22.87;54.72;99797.27;458700;115;922811;-74
2022/06/21 04:58:41;;;;;;;13.60;12.13;;;;;;;22.88;54.72;99794.15;458928;113;922579;-75
2022/06/21 04:59:48;;;;;;;14.82;12.46;;;;;;;22.92;54.69;99793.53;458890;115;923281;-75
2022/06/21 05:00:51;;;;;;;12.29;11.20;;;;;;;22.93;54.66;99796.02;458729;115;930353;-74
2022/06/21 05:01:54;;;;;;;12.34;11.09;;;;;;;22.97;54.64;99790.63;458867;115;922497;-75
2022/06/21 05:03:01;;;;;;;12.03;11.03;;;;;;;22.99;54.58;99789.16;458811;115;930363;-75
2022/06/21 05:04:08;;;;;;;11.67;10.59;;;;;;;23.01;54.52;99788.85;458644;113;930893;-74
2022/06/21 05:05:25;;;;;;;12.66;10.96;;;;;;;23.07;54.79;99784.81;482442;110;947047;-75
2022/06/21 05:06:28;;;;;;;12.25;10.88;;;;;;;23.07;54.79;99784.81;473830;112;922663;-75
2022/06/21 05:07:34;;;;;;;12.26;10.48;;;;;;;23.09;54.47;99788.11;474023;112;922572;-75
2022/06/21 05:08:40;;;;;;;14.08;10.52;;;;;;;23.10;54.37;99784.19;472482;112;922664;-75
2022/06/21 05:09:44;;;;;;;11.82;10.24;;;;;;;23.15;53.97;99773.76;465397;114;922587;-75
2022/06/21 05:10:50;;;;;;;10.95;9.63;;;;;;;23.15;53.97;99773.76;465491;114;923438;-75
2022/06/21 05:12:02;;;;;;;10.42;9.03;;;;;;;23.20;53.76;99778.36;465386;114;922591;-74
2022/06/21 05:13:15;;;;;;;10.60;9.15;;;;;;;23.20;53.76;99778.36;465402;114;922681;-75
2022/06/21 05:14:21;;;;;;;10.44;9.51;;;;;;;23.23;53.97;99778.53;464965;113;922812;-75
2022/06/21 05:15:28;;;;;;;11.89;9.86;;;;;;;23.25;53.95;99778.23;465404;114;922876;-75
2022/06/21 05:16:37;;;;;;;10.42;9.37;;;;;;;23.28;53.95;99778.41;465407;114;922605;-74
2022/06/21 05:17:45;;;;;;;13.41;8.84;;;;;;;23.31;53.97;99781.70;465003;114;923223;-75
2022/06/21 05:18:57;;;;;;;8.84;7.94;;;;;;;23.34;53.95;99770.74;465144;114;923104;-75
2022/06/21 05:20:04;;;;;;;14.02;8.38;;;;;;;23.39;53.50;99772.56;465445;114;922623;-74
2022/06/21 05:21:10;;;;;;;9.79;8.16;;;;;;;23.39;53.50;99772.56;465384;114;922581;-75
2022/06/21 05:22:17;;;;;;;12.74;9.08;;;;;;;23.42;53.73;99761.63;465443;114;922577;-75
2022/06/21 05:23:22;;;;;;;9.15;8.34;;;;;;;23.44;53.74;99764.90;465446;114;922612;-74